createdAt,value
2019-03-20T00:00:12.399Z,39.80
2019-03-20T00:02:51.847Z,40.20
2019-03-20T00:05:30.624Z,40.20
2019-03-20T00:08:09.474Z,40.05
2019-03-20T00:10:47.110Z,40.50
2019-03-20T00:13:26.010Z,39.35
2019-03-20T00:16:04.246Z,40.28
2019-03-20T00:18:44.116Z,42.40
2019-03-20T00:21:23.065Z,37.17
2019-03-20T00:24:01.614Z,38.33
2019-03-20T00:26:39.384Z,40.52
2019-03-20T00:29:18.078Z,37.13
2019-03-20T00:31:56.975Z,33.42
2019-03-20T00:34:35.422Z,32.45
2019-03-20T00:37:13.655Z,38.90
2019-03-20T00:39:52.627Z,38.58
2019-03-20T00:42:29.939Z,37.28
2019-03-20T00:45:12.938Z,36.08
2019-03-20T00:47:51.149Z,35.80
2019-03-20T00:50:30.514Z,38.20
2019-03-20T00:53:08.626Z,37.73
2019-03-20T00:55:48.731Z,41.00
2019-03-20T00:58:27.295Z,31.65
2019-03-20T01:01:05.663Z,32.88
2019-03-20T01:03:44.657Z,36.08
2019-03-20T01:06:24.877Z,34.23
2019-03-20T01:09:04.105Z,40.20
2019-03-20T01:11:45.912Z,38.13
2019-03-20T01:14:27.295Z,32.80
2019-03-20T01:17:05.734Z,39.13
2019-03-20T01:19:44.939Z,41.50
2019-03-20T01:22:32.624Z,40.43
2019-03-20T01:25:11.424Z,35.25
2019-03-20T01:27:49.569Z,37.30
2019-03-20T01:30:36.094Z,33.02
2019-03-20T01:33:15.869Z,36.63
2019-03-20T01:35:54.499Z,42.35
2019-03-20T01:38:32.064Z,39.70
2019-03-20T01:41:10.100Z,38.70
2019-03-20T01:43:50.207Z,37.70
2019-03-20T01:46:27.837Z,37.55
2019-03-20T01:49:05.961Z,35.30
2019-03-20T01:51:43.824Z,31.65
2019-03-20T01:54:22.532Z,33.55
2019-03-20T01:57:00.142Z,27.95
2019-03-20T01:59:38.415Z,35.03
2019-03-20T02:02:16.720Z,32.75
2019-03-20T02:04:55.996Z,28.80
2019-03-20T02:07:35.721Z,29.87
2019-03-20T02:10:17.542Z,36.93
2019-03-20T02:12:58.475Z,34.67
2019-03-20T02:15:39.224Z,37.40
2019-03-20T02:18:15.335Z,39.78
2019-03-20T02:20:54.106Z,34.30
2019-03-20T02:23:32.123Z,36.40
2019-03-20T02:26:11.019Z,34.10
2019-03-20T02:28:48.286Z,32.88
2019-03-20T02:31:26.584Z,35.03
2019-03-20T02:34:04.689Z,36.28
2019-03-20T02:36:43.662Z,39.65
2019-03-20T02:39:25.013Z,33.90
2019-03-20T02:42:04.290Z,35.35
2019-03-20T02:44:42.991Z,32.85
2019-03-20T02:47:22.331Z,37.00
2019-03-20T02:50:01.247Z,32.95
2019-03-20T02:52:41.090Z,31.60
2019-03-20T02:55:20.494Z,37.83
2019-03-20T02:57:59.707Z,32.67
2019-03-20T03:00:38.139Z,34.70
2019-03-20T03:03:16.849Z,37.10
2019-03-20T03:06:06.091Z,33.73
2019-03-20T03:08:35.488Z,31.20
2019-03-20T03:11:20.059Z,29.07
2019-03-20T03:14:01.618Z,29.60
2019-03-20T03:16:39.951Z,34.03
2019-03-20T03:19:18.496Z,33.13
2019-03-20T03:21:57.004Z,31.70
2019-03-20T03:24:35.891Z,35.35
2019-03-20T03:27:13.572Z,31.15
2019-03-20T03:29:53.757Z,31.48
2019-03-20T03:32:34.073Z,31.37
2019-03-20T03:35:18.178Z,28.57
2019-03-20T03:37:58.060Z,25.55
2019-03-20T03:40:37.157Z,25.52
2019-03-20T03:43:16.914Z,29.23
2019-03-20T03:45:56.719Z,31.77
2019-03-20T03:48:34.613Z,29.37
2019-03-20T03:51:15.329Z,33.58
2019-03-20T03:53:53.237Z,32.65
2019-03-20T03:56:31.711Z,25.05
2019-03-20T03:59:10.180Z,27.98
2019-03-20T04:01:52.113Z,35.83
2019-03-20T04:04:31.365Z,38.88
2019-03-20T04:07:10.045Z,31.80
2019-03-20T04:09:48.114Z,28.70
2019-03-20T04:12:27.083Z,27.90
2019-03-20T04:15:05.947Z,29.98
2019-03-20T04:17:46.132Z,30.72
2019-03-20T04:20:24.682Z,27.32
2019-03-20T04:23:06.211Z,29.27
2019-03-20T04:25:45.279Z,32.65
2019-03-20T04:28:24.214Z,37.42
2019-03-20T04:31:02.567Z,31.48
2019-03-20T04:33:45.026Z,28.70
2019-03-20T04:36:23.252Z,31.07
2019-03-20T04:39:05.992Z,37.73
2019-03-20T04:41:43.824Z,32.17
2019-03-20T04:44:23.706Z,32.85
2019-03-20T04:47:03.835Z,24.43
2019-03-20T04:49:42.505Z,29.60
2019-03-20T04:52:20.209Z,28.02
2019-03-20T04:54:58.471Z,35.15
2019-03-20T04:57:35.971Z,30.65
2019-03-20T05:00:17.508Z,31.90
2019-03-20T05:02:55.163Z,28.62
2019-03-20T05:05:37.089Z,27.70
2019-03-20T05:08:14.875Z,27.30
2019-03-20T05:10:52.947Z,26.97
2019-03-20T05:13:31.999Z,29.07
2019-03-20T05:16:10.042Z,28.73
2019-03-20T05:18:48.945Z,25.40
2019-03-20T05:21:28.519Z,33.05
2019-03-20T05:24:10.067Z,28.45
2019-03-20T05:26:50.918Z,27.17
2019-03-20T05:29:29.355Z,26.33
2019-03-20T05:32:08.343Z,28.70
2019-03-20T05:34:46.854Z,28.00
2019-03-20T05:37:27.689Z,30.23
2019-03-20T05:40:05.916Z,27.15
2019-03-20T05:42:45.072Z,26.30
2019-03-20T05:45:24.782Z,31.33
2019-03-20T05:48:03.224Z,28.70
2019-03-20T05:50:44.627Z,33.02
2019-03-20T05:53:23.509Z,26.95
2019-03-20T05:56:03.628Z,31.52
2019-03-20T05:58:45.330Z,25.60
2019-03-20T06:01:27.424Z,26.87
2019-03-20T06:19:15.377Z,22.80
2019-03-20T06:21:55.422Z,24.15
2019-03-20T06:24:34.720Z,30.62
2019-03-20T06:27:13.029Z,24.10
2019-03-20T06:29:53.998Z,27.95
2019-03-20T06:32:33.303Z,28.77
2019-03-20T06:35:16.572Z,29.48
2019-03-20T06:37:56.824Z,27.40
2019-03-20T06:40:36.727Z,33.75
2019-03-20T06:43:16.011Z,22.37
2019-03-20T06:45:54.766Z,29.23
2019-03-20T06:48:35.211Z,29.30
2019-03-20T06:51:13.018Z,30.50
2019-03-20T06:53:52.354Z,24.30
2019-03-20T06:56:30.860Z,26.70
2019-03-20T06:59:52.457Z,31.27
2019-03-20T07:02:37.032Z,34.98
2019-03-20T07:05:43.664Z,32.17
2019-03-20T07:08:29.186Z,27.10
2019-03-20T07:11:19.414Z,24.25
2019-03-20T07:13:57.781Z,31.25
2019-03-20T07:16:36.696Z,31.42
2019-03-20T07:19:14.632Z,26.15
2019-03-20T07:21:52.891Z,26.42
2019-03-20T07:24:33.299Z,33.95
2019-03-20T07:27:12.958Z,36.25
2019-03-20T07:29:51.196Z,30.08
2019-03-20T07:32:30.128Z,30.15
2019-03-20T07:35:10.655Z,27.20
2019-03-20T07:37:56.002Z,29.92
2019-03-20T07:40:30.215Z,27.10
2019-03-20T07:43:09.383Z,34.27
2019-03-20T07:45:48.724Z,25.90
2019-03-20T07:48:28.559Z,33.35
2019-03-20T07:51:06.820Z,30.50
2019-03-20T07:53:49.011Z,27.52
2019-03-20T07:56:30.100Z,30.17
2019-03-20T07:59:08.052Z,29.10
2019-03-20T08:01:46.113Z,25.95
2019-03-20T08:04:25.719Z,26.12
2019-03-20T08:07:03.781Z,24.25
2019-03-20T08:09:42.210Z,25.00
2019-03-20T08:12:20.301Z,25.48
2019-03-20T08:14:58.583Z,23.22
2019-03-20T08:17:36.775Z,24.05
2019-03-20T08:20:16.808Z,27.62
2019-03-20T08:22:55.310Z,24.40
2019-03-20T08:25:33.658Z,26.00
2019-03-20T08:28:13.031Z,32.10
2019-03-20T08:30:51.211Z,24.87
2019-03-20T08:33:29.465Z,24.82
2019-03-20T08:36:07.812Z,34.27
2019-03-20T08:38:46.117Z,25.55
2019-03-20T08:41:24.923Z,19.67
2019-03-20T08:44:03.494Z,22.42
2019-03-20T08:46:41.056Z,21.12
2019-03-20T08:49:19.472Z,18.87
2019-03-20T08:51:58.716Z,27.52
2019-03-20T08:54:37.122Z,23.32
2019-03-20T08:57:16.842Z,19.87
2019-03-20T08:59:55.825Z,20.08
2019-03-20T09:02:37.975Z,20.82
2019-03-20T09:07:53.880Z,23.60
2019-03-20T09:10:34.781Z,23.27
2019-03-20T09:13:13.124Z,25.25
2019-03-20T09:15:52.278Z,24.00
2019-03-20T09:18:32.295Z,24.10
2019-03-20T09:21:11.758Z,26.05
2019-03-20T09:24:05.249Z,23.00
2019-03-20T09:26:45.178Z,23.60
2019-03-20T09:29:35.661Z,24.55
2019-03-20T09:32:14.077Z,23.35
2019-03-20T09:34:55.438Z,22.70
2019-03-20T09:37:39.324Z,21.87
2019-03-20T09:40:23.457Z,19.80
2019-03-20T09:45:42.826Z,23.70
2019-03-20T09:48:24.114Z,17.60
2019-03-20T09:51:05.815Z,27.70
2019-03-20T09:53:44.089Z,31.85
2019-03-20T09:56:30.991Z,24.80
2019-03-20T09:59:15.603Z,20.92
2019-03-20T10:01:55.788Z,25.52
2019-03-20T10:04:36.127Z,20.08
2019-03-20T10:07:18.768Z,22.07
2019-03-20T10:09:58.442Z,19.67
2019-03-20T10:12:41.311Z,22.95
2019-03-20T10:15:21.208Z,27.50
2019-03-20T10:18:01.077Z,26.02
2019-03-20T10:20:42.308Z,22.17
2019-03-20T10:23:22.312Z,23.75
2019-03-20T10:26:02.201Z,23.63
2019-03-20T10:28:49.794Z,27.60
2019-03-20T10:31:32.515Z,35.48
2019-03-20T10:34:17.707Z,31.68
2019-03-20T10:36:59.397Z,21.37
2019-03-20T10:39:43.175Z,31.82
2019-03-20T10:42:21.143Z,40.38
2019-03-20T10:45:04.264Z,29.75
2019-03-20T10:47:44.831Z,26.07
2019-03-20T10:50:23.952Z,45.35
2019-03-20T10:53:05.506Z,36.58
2019-03-20T10:55:43.662Z,30.10
2019-03-20T10:58:23.418Z,30.08
2019-03-20T11:01:01.770Z,28.05
2019-03-20T11:03:47.144Z,30.70
2019-03-20T11:06:29.634Z,37.33
2019-03-20T11:09:18.516Z,26.05
2019-03-20T11:11:56.077Z,30.92
2019-03-20T11:14:36.489Z,35.52
2019-03-20T11:17:15.266Z,26.23
2019-03-20T11:19:56.311Z,29.42
2019-03-20T11:22:35.103Z,28.77
2019-03-20T11:25:14.767Z,28.85
2019-03-20T11:27:56.618Z,48.52
2019-03-20T11:30:36.616Z,34.70
2019-03-20T11:33:14.973Z,34.05
2019-03-20T11:35:53.591Z,28.07
2019-03-20T11:38:34.727Z,35.00
2019-03-20T11:41:14.529Z,28.07
2019-03-20T11:43:52.884Z,26.73
2019-03-20T11:46:30.899Z,23.07
2019-03-20T11:49:10.337Z,27.37
2019-03-20T11:51:47.742Z,24.55
2019-03-20T11:54:26.696Z,30.50
2019-03-20T11:57:05.683Z,30.48
2019-03-20T11:59:44.971Z,23.25
2019-03-20T12:02:28.052Z,28.35
2019-03-20T12:05:02.509Z,22.87
2019-03-20T12:07:40.981Z,27.55
2019-03-20T12:10:23.373Z,32.55
2019-03-20T12:13:02.426Z,29.42
2019-03-20T12:15:41.205Z,23.83
2019-03-20T12:18:19.498Z,26.52
2019-03-20T12:20:56.856Z,31.02
2019-03-20T12:23:34.771Z,28.35
2019-03-20T12:26:13.476Z,27.87
2019-03-20T12:28:53.581Z,30.20
2019-03-20T12:31:30.994Z,28.75
2019-03-20T12:34:08.470Z,28.77
2019-03-20T12:36:49.695Z,27.32
2019-03-20T12:39:29.383Z,33.05
2019-03-20T12:42:10.085Z,27.85
2019-03-20T12:44:48.502Z,34.80
2019-03-20T12:47:26.434Z,33.90
2019-03-20T12:50:04.163Z,33.95
2019-03-20T12:52:42.044Z,32.63
2019-03-20T12:55:20.842Z,31.57
2019-03-20T12:57:58.834Z,24.27
2019-03-20T13:00:40.738Z,29.42
2019-03-20T13:03:19.884Z,30.27
2019-03-20T13:05:58.322Z,28.87
2019-03-20T13:08:40.203Z,27.45
2019-03-20T13:11:23.189Z,28.02
2019-03-20T13:14:03.494Z,35.20
2019-03-20T13:16:43.301Z,27.93
2019-03-20T13:19:22.077Z,24.43
2019-03-20T13:22:02.631Z,27.75
2019-03-20T13:24:40.838Z,28.45
2019-03-20T13:27:20.316Z,34.27
2019-03-20T13:29:58.198Z,29.80
2019-03-20T13:32:36.867Z,25.62
2019-03-20T13:35:15.639Z,25.12
2019-03-20T13:37:58.661Z,30.05
2019-03-20T13:40:37.509Z,26.17
2019-03-20T13:43:16.914Z,32.53
2019-03-20T13:45:54.593Z,29.05
2019-03-20T13:48:33.410Z,31.73
2019-03-20T13:51:14.343Z,26.30
2019-03-20T13:53:52.853Z,27.00
2019-03-20T13:56:39.492Z,29.40
2019-03-20T13:59:20.481Z,34.92
2019-03-20T14:01:58.841Z,27.67
2019-03-20T14:04:39.706Z,31.27
2019-03-20T14:07:19.052Z,27.20
2019-03-20T14:10:06.992Z,25.20
2019-03-20T14:12:45.188Z,28.07
2019-03-20T14:15:23.442Z,26.97
2019-03-20T14:18:01.742Z,27.32
2019-03-20T14:20:41.828Z,28.80
2019-03-20T14:23:25.982Z,23.10
2019-03-20T14:26:05.115Z,25.30
2019-03-20T14:28:44.626Z,30.27
2019-03-20T14:31:38.312Z,23.38
2019-03-20T14:37:28.415Z,28.32
2019-03-20T14:40:07.112Z,24.15
2019-03-20T14:42:44.963Z,24.98
2019-03-20T14:45:23.107Z,26.70
2019-03-20T14:48:03.603Z,27.67
2019-03-20T14:50:44.750Z,27.85
2019-03-20T14:53:22.985Z,28.10
2019-03-20T14:56:03.620Z,26.97
2019-03-20T14:58:43.170Z,20.57
2019-03-20T15:01:20.956Z,29.87
2019-03-20T15:03:59.902Z,24.85
2019-03-20T15:06:37.635Z,28.80
2019-03-20T15:09:18.197Z,24.95
2019-03-20T15:11:55.693Z,21.20
2019-03-20T15:14:35.153Z,25.68
2019-03-20T15:17:13.209Z,28.50
2019-03-20T15:19:51.264Z,25.70
2019-03-20T15:22:30.192Z,25.48
2019-03-20T15:25:08.630Z,27.13
2019-03-20T15:27:48.391Z,28.23
2019-03-20T15:30:29.727Z,30.20
2019-03-20T15:33:10.421Z,32.80
2019-03-20T15:35:49.608Z,27.48
2019-03-20T15:38:28.569Z,26.87
2019-03-20T15:41:08.051Z,22.42
2019-03-20T15:43:49.899Z,24.75
2019-03-20T15:46:30.839Z,24.67
2019-03-20T15:49:11.334Z,23.45
2019-03-20T15:51:49.283Z,25.20
2019-03-20T15:54:29.059Z,27.73
2019-03-20T15:57:10.364Z,25.37
2019-03-20T15:59:49.552Z,26.00
2019-03-20T16:02:47.350Z,23.92
2019-03-20T16:05:25.580Z,26.93
2019-03-20T16:08:06.836Z,22.70
2019-03-20T16:13:23.548Z,20.23
2019-03-20T16:16:05.198Z,25.10
2019-03-20T16:18:45.264Z,31.80
2019-03-20T16:21:23.580Z,25.55
2019-03-20T16:24:03.312Z,24.30
2019-03-20T16:26:45.903Z,27.02
2019-03-20T16:29:25.031Z,22.25
2019-03-20T16:32:05.105Z,28.47
2019-03-20T16:34:44.668Z,31.40
2019-03-20T16:37:25.266Z,26.15
2019-03-20T16:40:04.576Z,29.77
2019-03-20T16:42:42.983Z,29.57
2019-03-20T16:45:28.469Z,24.57
2019-03-20T16:48:06.662Z,25.30
2019-03-20T16:50:44.762Z,20.50
2019-03-20T16:53:23.026Z,22.62
2019-03-20T16:56:02.020Z,22.13
2019-03-20T16:58:40.722Z,22.90
2019-03-20T17:01:19.881Z,25.37
2019-03-20T17:03:58.452Z,27.85
2019-03-20T17:06:37.459Z,22.52
2019-03-20T17:09:16.125Z,29.25
2019-03-20T17:11:54.729Z,26.23
2019-03-20T17:14:33.230Z,26.80
2019-03-20T17:17:13.276Z,26.82
2019-03-20T17:19:52.686Z,23.98
2019-03-20T17:22:41.914Z,24.18
2019-03-20T17:25:19.652Z,27.37
2019-03-20T17:27:59.185Z,25.30
2019-03-20T17:34:06.867Z,20.77
2019-03-20T17:37:01.888Z,23.05
2019-03-20T17:39:58.501Z,21.90
2019-03-20T17:42:41.173Z,25.48
2019-03-20T17:45:20.087Z,25.10
2019-03-20T17:47:59.855Z,26.20
2019-03-20T17:50:38.567Z,28.77
2019-03-20T17:53:18.099Z,28.07
2019-03-20T17:55:55.609Z,26.10
2019-03-20T17:58:34.902Z,27.85
2019-03-20T18:01:16.100Z,26.45
2019-03-20T18:03:54.335Z,25.15
2019-03-20T18:06:33.495Z,25.35
2019-03-20T18:09:16.741Z,18.50
2019-03-20T18:11:58.177Z,21.12
2019-03-20T18:14:39.413Z,24.82
2019-03-20T18:17:18.388Z,30.02
2019-03-20T18:19:57.025Z,25.75
2019-03-20T18:22:35.589Z,29.55
2019-03-20T18:25:14.327Z,25.85
2019-03-20T18:27:53.874Z,26.73
2019-03-20T18:30:35.060Z,24.43
2019-03-20T18:33:17.772Z,25.17
2019-03-20T18:35:58.291Z,24.60
2019-03-20T18:38:36.729Z,24.98
2019-03-20T18:41:16.143Z,29.37
2019-03-20T18:43:55.727Z,29.70
2019-03-20T18:46:34.702Z,26.77
2019-03-20T18:49:13.300Z,29.10
2019-03-20T18:51:51.431Z,26.65
2019-03-20T18:54:29.791Z,25.77
2019-03-20T18:57:07.688Z,24.47
2019-03-20T18:59:46.107Z,26.40
2019-03-20T19:02:24.477Z,23.62
2019-03-20T19:05:03.930Z,23.90
2019-03-20T19:07:42.263Z,21.33
2019-03-20T19:10:21.647Z,23.98
2019-03-20T19:13:01.505Z,26.60
2019-03-20T19:15:44.616Z,26.40
2019-03-20T19:18:23.149Z,25.17
2019-03-20T19:21:02.378Z,28.70
2019-03-20T19:23:42.573Z,28.25
2019-03-20T19:26:21.688Z,27.15
2019-03-20T19:29:01.906Z,33.23
2019-03-20T19:31:43.260Z,32.93
2019-03-20T19:34:22.543Z,25.92
2019-03-20T19:37:02.732Z,29.42
2019-03-20T19:39:40.857Z,29.75
2019-03-20T19:42:20.137Z,21.40
2019-03-20T19:44:59.714Z,23.07
2019-03-20T19:47:38.702Z,26.77
2019-03-20T19:50:17.328Z,23.22
2019-03-20T19:52:55.618Z,23.67
2019-03-20T19:55:35.153Z,21.68
2019-03-20T19:58:13.038Z,25.30
2019-03-20T20:00:55.228Z,26.27
2019-03-20T20:03:34.577Z,23.42
2019-03-20T20:06:14.212Z,25.32
2019-03-20T20:08:54.265Z,29.10
2019-03-20T20:11:39.523Z,24.00
2019-03-20T20:14:18.272Z,22.45
2019-03-20T20:16:56.480Z,21.62
2019-03-20T20:19:37.841Z,23.07
2019-03-20T20:22:16.475Z,28.27
2019-03-20T20:24:56.862Z,25.82
2019-03-20T20:27:35.783Z,19.40
2019-03-20T20:30:18.679Z,24.02
2019-03-20T20:32:59.640Z,22.37
2019-03-20T20:38:19.882Z,24.00
2019-03-20T20:40:59.437Z,20.40
2019-03-20T20:43:39.723Z,26.15
2019-03-20T20:46:17.170Z,30.08
2019-03-20T20:48:56.618Z,25.50
2019-03-20T20:51:34.919Z,24.75
2019-03-20T20:54:14.453Z,25.48
2019-03-20T20:56:52.370Z,30.88
2019-03-20T20:59:31.055Z,25.45
2019-03-20T21:02:09.822Z,28.40
2019-03-20T21:04:56.280Z,27.35
2019-03-20T21:07:35.628Z,28.65
2019-03-20T21:10:17.904Z,26.80
2019-03-20T21:12:59.060Z,32.45
2019-03-20T21:15:48.555Z,34.88
2019-03-20T21:19:00.598Z,40.60
2019-03-20T21:21:54.774Z,49.30
2019-03-20T21:24:38.114Z,34.60
2019-03-20T21:28:03.007Z,36.70
2019-03-20T21:30:49.380Z,26.15
2019-03-20T21:34:18.537Z,32.13
2019-03-20T21:37:25.056Z,22.82
2019-03-20T21:40:05.574Z,28.80
2019-03-20T21:43:21.768Z,28.30
2019-03-20T21:46:32.931Z,25.52
2019-03-20T21:49:15.131Z,22.65
2019-03-20T21:51:56.805Z,26.85
2019-03-20T21:55:30.619Z,26.03
2019-03-20T21:58:24.829Z,46.30
2019-03-20T22:01:37.678Z,39.23
2019-03-20T22:04:16.352Z,29.67
2019-03-20T22:07:11.808Z,28.83
2019-03-20T22:10:30.922Z,28.85
2019-03-20T22:13:36.227Z,27.05
2019-03-20T22:16:55.441Z,25.70
2019-03-20T22:19:46.300Z,29.98
2019-03-20T22:23:20.663Z,24.18
2019-03-20T22:26:56.064Z,22.10
2019-03-20T22:29:38.330Z,23.62
2019-03-20T22:32:56.995Z,25.68
2019-03-20T22:35:56.147Z,27.27
2019-03-20T22:39:28.679Z,26.62
2019-03-20T22:42:47.335Z,26.37
2019-03-20T22:46:07.404Z,25.48
2019-03-20T22:49:21.101Z,22.42
2019-03-20T22:52:34.833Z,24.98
2019-03-20T22:55:56.233Z,28.80
2019-03-20T22:58:51.946Z,26.93
2019-03-20T23:01:43.234Z,28.10
2019-03-20T23:04:33.199Z,39.30
2019-03-20T23:07:11.423Z,23.15
2019-03-20T23:09:51.769Z,28.23
2019-03-20T23:12:32.003Z,26.80
2019-03-20T23:15:13.739Z,24.40
2019-03-20T23:17:54.010Z,27.20
2019-03-20T23:20:35.554Z,23.20
2019-03-20T23:23:14.732Z,26.45
2019-03-20T23:25:59.108Z,25.70
2019-03-20T23:28:40.730Z,21.90
2019-03-20T23:31:19.846Z,26.97
2019-03-20T23:33:59.879Z,23.07
2019-03-20T23:36:43.147Z,31.00
2019-03-20T23:39:21.669Z,27.75
2019-03-20T23:42:00.995Z,25.15
2019-03-20T23:44:53.203Z,26.05
2019-03-20T23:47:41.575Z,24.72
2019-03-20T23:50:20.636Z,29.50
2019-03-20T23:53:03.083Z,24.10
2019-03-20T23:55:52.485Z,20.80
2019-03-20T23:58:31.730Z,21.27
